Погода Барисална 2 недели

Барисал, Бангладеш

03 - 16 марта
  • 03марта
    Сегодня
    +19°
    +32°
    Ясно и безоблачно
    ВремяПогодаТемператураВлажностьДавлениеВетер, м/сВероятность осадков
    00:00Ясно и безоблачно+19°C83 %760 мм2.0 м/с2 %
    03:00Ясно и безоблачно+21°C90 %759 мм1.8 м/с2 %
    06:00Ясно и безоблачно+19°C88 %759 мм0.8 м/с2 %
    09:00Ясно и безоблачно+25°C66 %761 мм0.9 м/с2 %
    12:00Ясно и безоблачно+30°C52 %760 мм2.4 м/с2 %
    15:00Ясно и безоблачно+31°C45 %758 мм2.6 м/с2 %
    18:00Ясно и безоблачно+27°C60 %758 мм1.8 м/с2 %
    21:00Ясно и безоблачно+25°C65 %759 мм1.0 м/с2 %
  • 04марта
    Понедельник
    +20°
    +33°
    Ясно и безоблачно
    ВремяПогодаТемператураВлажностьДавлениеВетер, м/сВероятность осадков
    00:00Ясно и безоблачно+21°C84 %759 мм2.3 м/с2 %
    03:00Ясно и безоблачно+21°C90 %758 мм2.0 м/с2 %
    06:00Практически безоблачно+20°C92 %759 мм1.8 м/с2 %
    09:00Ясно и безоблачно+26°C71 %760 мм1.2 м/с2 %
    12:00Ясно и безоблачно+32°C42 %759 мм2.5 м/с2 %
    15:00Ясно и безоблачно+33°C42 %757 мм2.3 м/с6 %
    18:00Практически безоблачно+28°C61 %757 мм1.9 м/с12 %
    21:00Практически безоблачно+25°C75 %759 мм2.3 м/с13 %
  • 05марта
    Вторник
    +19°
    +33°
    Ясно и безоблачно
    ВремяПогодаТемператураВлажностьДавлениеВетер, м/сВероятность осадков
    00:00Ясно и безоблачно+22°C86 %759 мм1.4 м/с5 %
    03:00Ясно и безоблачно+24°C88 %758 мм2.2 м/с2 %
    06:00Ясно и безоблачно+21°C95 %759 мм1.6 м/с2 %
    09:00Ясно и безоблачно+27°C70 %760 мм2.2 м/с2 %
    12:00Ясно и безоблачно+31°C50 %760 мм3.0 м/с2 %
    15:00Ясно и безоблачно+33°C46 %757 мм2.3 м/с2 %
    18:00Ясно и безоблачно+28°C57 %757 мм1.7 м/с5 %
    21:00Ясно и безоблачно+23°C72 %759 мм2.0 м/с2 %
  • 06марта
    Среда
    +16°
    +32°
    Ясно и безоблачно
    ВремяПогодаТемператураВлажностьДавлениеВетер, м/сВероятность осадков
    00:00Ясно и безоблачно+24°C72 %759 мм1.0 м/с2 %
    03:00Ясно и безоблачно+23°C86 %758 мм1.7 м/с2 %
    06:00Ясно и безоблачно+20°C75 %759 мм2.6 м/с2 %
    09:00Ясно и безоблачно+25°C49 %761 мм3.1 м/с2 %
    12:00Ясно и безоблачно+30°C26 %760 мм3.1 м/с2 %
    15:00Ясно и безоблачно+32°C25 %758 мм2.5 м/с2 %
    18:00Ясно и безоблачно+25°C47 %757 мм2.1 м/с2 %
    21:00Ясно и безоблачно+23°C49 %759 мм1.4 м/с2 %
  • 07марта
    Четверг
    +17°
    +32°
    Облачно с прояснениями
    ВремяПогодаТемператураВлажностьДавлениеВетер, м/сВероятность осадков
    00:00Ясно и безоблачно+21°C68 %758 мм2.0 м/с2 %
    03:00Ясно и безоблачно+20°C85 %758 мм2.5 м/с2 %
    06:00Ясно и безоблачно+17°C72 %758 мм2.2 м/с2 %
    09:00Ясно и безоблачно+24°C48 %760 мм1.4 м/с2 %
    12:00Ясно и безоблачно+30°C30 %760 мм2.3 м/с2 %
    15:00Облачно с прояснениями+32°C32 %757 мм2.8 м/с2 %
    18:00Пасмурно, сплошная облачность+27°C44 %758 мм2.1 м/с4 %
    21:00Практически безоблачно+23°C54 %759 мм0.9 м/с2 %
Мы используем cookies
Соглашаюсь